createdAt,value
2023-04-27T00:01:31.143Z,54.23
2023-04-27T00:03:59.051Z,56.75
2023-04-27T00:06:27.933Z,58.25
2023-04-27T00:08:54.876Z,59.38
2023-04-27T00:11:22.496Z,60.01
2023-04-27T00:13:49.385Z,60.71
2023-04-27T00:16:16.392Z,61.55
2023-04-27T00:18:43.315Z,62.31
2023-04-27T00:21:12.689Z,62.67
2023-04-27T00:23:39.611Z,62.19
2023-04-27T00:26:06.389Z,62.88
2023-04-27T00:28:36.749Z,63.21
2023-04-27T00:31:04.905Z,63.47
2023-04-27T00:33:35.131Z,64.12
2023-04-27T00:36:02.808Z,63.39
2023-04-27T00:38:30.267Z,64.08
2023-04-27T00:41:07.840Z,64.20
2023-04-27T00:43:45.453Z,64.56
2023-04-27T00:46:17.146Z,64.55
2023-04-27T00:48:47.139Z,64.51
2023-04-27T00:51:13.993Z,64.19
2023-04-27T00:53:43.888Z,64.46
2023-04-27T00:56:11.409Z,64.62
2023-04-27T00:58:38.195Z,64.89
2023-04-27T01:01:06.274Z,65.11
2023-04-27T01:03:35.307Z,65.28
2023-04-27T01:06:02.214Z,65.57
2023-04-27T01:08:30.009Z,65.69
2023-04-27T01:10:57.105Z,65.48
2023-04-27T01:13:27.051Z,65.59
2023-04-27T01:15:54.031Z,65.20
2023-04-27T01:18:23.948Z,64.99
2023-04-27T01:20:50.735Z,63.71
2023-04-27T01:23:21.167Z,62.64
2023-04-27T01:25:48.057Z,61.78
2023-04-27T01:28:15.009Z,60.55
2023-04-27T01:30:47.829Z,57.17
2023-04-27T01:33:17.657Z,56.69
2023-04-27T01:35:44.542Z,58.45
2023-04-27T01:38:13.199Z,57.94
2023-04-27T01:40:40.232Z,56.22
2023-04-27T01:43:07.081Z,55.71
2023-04-27T01:45:33.873Z,57.80
2023-04-27T01:48:03.237Z,60.01
2023-04-27T01:50:30.108Z,59.00
2023-04-27T01:52:56.969Z,59.71
2023-04-27T01:55:25.639Z,60.40
2023-04-27T01:57:52.465Z,60.84
2023-04-27T02:00:19.635Z,62.47
2023-04-27T02:02:46.817Z,64.03
2023-04-27T02:05:13.859Z,64.85
2023-04-27T02:07:41.043Z,65.32
2023-04-27T02:10:08.548Z,65.44
2023-04-27T02:12:47.293Z,65.06
2023-04-27T02:15:17.981Z,65.23
2023-04-27T02:17:45.772Z,65.65
2023-04-27T02:20:17.775Z,65.23
2023-04-27T02:22:45.084Z,65.32
2023-04-27T02:25:12.629Z,65.41
2023-04-27T02:27:42.913Z,65.24
2023-04-27T02:30:12.083Z,65.26
2023-04-27T02:32:40.351Z,65.57
2023-04-27T02:35:08.284Z,63.75
2023-04-27T02:37:35.584Z,63.35
2023-04-27T02:40:02.485Z,63.76
2023-04-27T02:42:30.442Z,63.47
2023-04-27T02:44:57.394Z,63.30
2023-04-27T02:47:27.108Z,63.99
2023-04-27T02:49:53.919Z,64.91
2023-04-27T02:52:24.090Z,65.15
2023-04-27T02:54:54.028Z,65.44
2023-04-27T02:57:29.183Z,65.51
2023-04-27T02:59:56.124Z,65.59
2023-04-27T03:02:23.229Z,66.99
2023-04-27T03:04:55.246Z,67.21
2023-04-27T03:07:22.724Z,67.72
2023-04-27T03:09:49.775Z,67.28
2023-04-27T03:12:16.614Z,66.64
2023-04-27T03:14:43.681Z,67.46
2023-04-27T03:17:16.703Z,67.35
2023-04-27T03:19:44.057Z,67.78
2023-04-27T03:22:13.621Z,67.19
2023-04-27T03:24:40.513Z,67.07
2023-04-27T03:27:07.389Z,66.44
2023-04-27T03:29:34.251Z,66.19
2023-04-27T03:32:01.894Z,65.18
2023-04-27T03:34:36.767Z,63.25
2023-04-27T03:37:03.690Z,61.69
2023-04-27T03:39:30.682Z,61.14
2023-04-27T03:41:58.241Z,62.08
2023-04-27T03:44:25.073Z,64.09
2023-04-27T03:46:52.197Z,64.32
2023-04-27T03:49:19.024Z,64.18
2023-04-27T03:51:53.585Z,63.82
2023-04-27T03:54:20.653Z,63.75
2023-04-27T03:56:50.574Z,63.43
2023-04-27T03:59:17.361Z,65.07
2023-04-27T04:01:44.217Z,63.57
2023-04-27T04:04:11.875Z,61.18
2023-04-27T04:06:38.963Z,61.78
2023-04-27T04:09:05.905Z,61.52
2023-04-27T04:11:32.878Z,59.95
2023-04-27T04:13:59.803Z,60.62
2023-04-27T04:16:26.804Z,59.38
2023-04-27T04:18:53.545Z,60.05
2023-04-27T04:21:21.276Z,59.60
2023-04-27T04:23:48.916Z,59.12
2023-04-27T04:26:16.984Z,57.01
2023-04-27T04:28:44.605Z,54.56
2023-04-27T04:31:11.476Z,56.77
2023-04-27T04:33:38.583Z,59.37
2023-04-27T04:36:05.985Z,62.06
2023-04-27T04:38:33.435Z,59.39
2023-04-27T04:41:00.321Z,57.08
2023-04-27T04:43:27.289Z,58.52
2023-04-27T04:45:54.260Z,56.77
2023-04-27T04:48:22.729Z,56.40
2023-04-27T04:50:52.709Z,59.67
2023-04-27T04:53:19.587Z,58.37
2023-04-27T04:55:46.854Z,57.41
2023-04-27T04:58:13.955Z,56.96
2023-04-27T05:00:41.191Z,57.06
2023-04-27T05:03:08.769Z,59.20
2023-04-27T05:05:35.925Z,60.14
2023-04-27T05:08:03.079Z,59.54
2023-04-27T05:10:30.024Z,60.17
2023-04-27T05:12:56.828Z,60.48
2023-04-27T05:15:25.284Z,59.74
2023-04-27T05:17:52.137Z,58.79
2023-04-27T05:20:27.077Z,58.27
2023-04-27T05:22:57.543Z,58.01
2023-04-27T05:25:27.315Z,57.87
2023-04-27T05:27:54.247Z,56.90
2023-04-27T05:30:21.429Z,56.14
2023-04-27T05:32:48.349Z,53.82
2023-04-27T05:35:15.341Z,53.09
2023-04-27T05:37:42.470Z,53.26
2023-04-27T05:40:10.062Z,52.88
2023-04-27T05:42:37.161Z,52.84
2023-04-27T05:45:11.784Z,53.10
2023-04-27T05:47:46.580Z,53.22
2023-04-27T05:50:21.743Z,53.74
2023-04-27T05:52:48.858Z,53.41
2023-04-27T05:55:16.399Z,53.99
2023-04-27T05:57:47.693Z,55.20
2023-04-27T06:00:22.198Z,52.03
2023-04-27T06:03:01.387Z,52.00
2023-04-27T06:05:32.132Z,51.73
2023-04-27T06:08:00.644Z,52.00
2023-04-27T06:10:34.455Z,52.23
2023-04-27T06:13:01.431Z,51.82
2023-04-27T06:15:28.324Z,52.06
2023-04-27T06:17:55.624Z,51.60
2023-04-27T06:20:25.249Z,51.50
2023-04-27T06:22:52.146Z,51.54
2023-04-27T06:25:40.443Z,51.68
2023-04-27T06:28:10.974Z,51.90
2023-04-27T06:30:39.506Z,53.50
2023-04-27T06:33:06.723Z,51.54
2023-04-27T06:35:33.619Z,51.48
2023-04-27T06:38:01.158Z,51.89
2023-04-27T06:40:29.636Z,51.65
2023-04-27T06:42:56.426Z,52.64
2023-04-27T06:45:23.288Z,53.10
2023-04-27T06:47:52.718Z,54.34
2023-04-27T06:50:19.573Z,51.83
2023-04-27T06:52:49.632Z,51.81
2023-04-27T06:55:22.544Z,52.02
2023-04-27T06:57:49.470Z,52.66
2023-04-27T07:00:18.852Z,52.38
2023-04-27T07:02:53.470Z,52.22
2023-04-27T07:05:26.712Z,53.01
2023-04-27T07:07:56.121Z,51.61
2023-04-27T07:10:22.955Z,53.24
2023-04-27T07:12:53.523Z,52.44
2023-04-27T07:15:20.466Z,52.12
2023-04-27T07:17:47.295Z,52.40
2023-04-27T07:20:14.839Z,51.37
2023-04-27T07:22:41.848Z,52.10
2023-04-27T07:25:09.183Z,52.16
2023-04-27T07:27:36.583Z,52.87
2023-04-27T07:30:03.546Z,52.24
2023-04-27T07:32:31.189Z,52.34
2023-04-27T07:34:58.421Z,52.84
2023-04-27T07:37:25.284Z,52.58
2023-04-27T07:39:55.101Z,52.31
2023-04-27T07:42:25.406Z,51.81
2023-04-27T07:44:52.781Z,51.54
2023-04-27T07:47:20.084Z,51.36
2023-04-27T07:49:47.587Z,51.07
2023-04-27T07:52:19.362Z,52.44
2023-04-27T07:54:49.215Z,52.78
2023-04-27T07:57:16.327Z,52.07
2023-04-27T07:59:46.121Z,52.35
2023-04-27T08:02:19.534Z,52.97
2023-04-27T08:04:48.203Z,52.53
2023-04-27T08:07:20.728Z,51.40
2023-04-27T08:09:50.715Z,50.74
2023-04-27T08:12:17.644Z,49.56
2023-04-27T08:14:44.777Z,51.54
2023-04-27T08:17:12.081Z,49.92
2023-04-27T08:19:39.208Z,51.13
2023-04-27T08:22:06.053Z,51.03
2023-04-27T08:24:33.205Z,51.23
2023-04-27T08:27:00.042Z,51.09
2023-04-27T08:29:31.269Z,51.45
2023-04-27T08:32:01.929Z,51.50
2023-04-27T08:34:29.643Z,51.57
2023-04-27T08:36:57.171Z,51.75
2023-04-27T08:39:25.083Z,51.99
2023-04-27T08:41:53.332Z,52.27
2023-04-27T08:44:20.477Z,52.21
2023-04-27T08:46:47.297Z,52.02
2023-04-27T08:49:16.520Z,51.94
2023-04-27T08:51:44.459Z,51.97
2023-04-27T08:54:11.487Z,51.10
2023-04-27T08:56:38.709Z,51.53
2023-04-27T08:59:16.307Z,51.23
2023-04-27T09:01:51.223Z,51.08
2023-04-27T09:04:21.639Z,51.11
2023-04-27T09:06:50.079Z,51.16
2023-04-27T09:09:25.684Z,51.06
2023-04-27T09:11:54.990Z,52.16
2023-04-27T09:14:24.486Z,52.54
2023-04-27T09:17:00.150Z,52.15
2023-04-27T09:19:29.087Z,52.30
2023-04-27T09:22:11.709Z,52.26
2023-04-27T09:24:38.641Z,51.32
2023-04-27T09:27:07.513Z,51.58
2023-04-27T09:29:38.325Z,52.43
2023-04-27T09:32:17.252Z,51.08
2023-04-27T09:34:47.764Z,53.03
2023-04-27T09:37:20.928Z,51.56
2023-04-27T09:39:50.196Z,53.28
2023-04-27T09:42:17.476Z,51.35
2023-04-27T09:44:44.229Z,51.52
2023-04-27T09:47:12.864Z,51.80
2023-04-27T09:49:41.276Z,51.73
2023-04-27T09:52:13.136Z,51.80
2023-04-27T09:54:41.140Z,52.20
2023-04-27T09:57:20.591Z,51.80
2023-04-27T10:00:21.109Z,50.89
2023-04-27T10:03:24.410Z,50.50
2023-04-27T10:05:57.481Z,50.25
2023-04-27T10:08:24.997Z,50.17
2023-04-27T10:10:53.659Z,49.90
2023-04-27T10:13:26.531Z,49.48
2023-04-27T10:15:54.890Z,49.33
2023-04-27T10:18:34.017Z,48.66
2023-04-27T10:21:11.193Z,48.36
2023-04-27T10:23:47.103Z,47.86
2023-04-27T10:26:14.068Z,47.71
2023-04-27T10:28:42.292Z,46.99
2023-04-27T10:31:15.276Z,47.43
2023-04-27T10:33:43.917Z,47.47
2023-04-27T10:36:16.204Z,47.57
2023-04-27T10:38:42.989Z,46.93
2023-04-27T10:41:15.181Z,46.23
2023-04-27T10:43:42.074Z,46.22
2023-04-27T10:46:14.183Z,45.04
2023-04-27T10:48:48.193Z,44.57
2023-04-27T10:51:18.514Z,46.16
2023-04-27T10:53:45.420Z,46.06
2023-04-27T10:56:19.118Z,46.13
2023-04-27T10:58:49.416Z,45.96
2023-04-27T11:01:32.514Z,45.63
2023-04-27T11:04:02.312Z,45.49
2023-04-27T11:06:30.587Z,46.02
2023-04-27T11:08:57.438Z,44.30
2023-04-27T11:11:27.411Z,45.38
2023-04-27T11:13:56.195Z,45.24
2023-04-27T11:16:23.402Z,44.49
2023-04-27T11:18:50.857Z,45.10
2023-04-27T11:21:20.785Z,45.15
2023-04-27T11:23:48.158Z,45.27
2023-04-27T11:26:22.341Z,45.13
2023-04-27T11:29:05.759Z,44.86
2023-04-27T11:31:59.096Z,45.42
2023-04-27T11:34:27.352Z,45.55
2023-04-27T11:39:46.648Z,44.69
2023-04-27T11:42:28.842Z,44.68
2023-04-27T11:45:00.451Z,44.78
2023-04-27T11:47:33.059Z,44.76
2023-04-27T11:50:05.290Z,45.08
2023-04-27T11:52:33.615Z,43.81
2023-04-27T11:55:02.192Z,44.33
2023-04-27T11:57:31.532Z,44.22
2023-04-27T12:00:01.766Z,43.48
2023-04-27T12:02:30.687Z,43.48
2023-04-27T12:05:06.386Z,42.23
2023-04-27T12:07:37.973Z,43.68
2023-04-27T12:10:07.032Z,43.07
2023-04-27T12:12:34.047Z,43.76
2023-04-27T12:15:01.030Z,43.02
2023-04-27T12:17:28.265Z,43.98
2023-04-27T12:19:55.319Z,43.03
2023-04-27T12:22:22.667Z,44.44
2023-04-27T12:24:51.214Z,43.40
2023-04-27T12:27:18.064Z,43.73
2023-04-27T12:29:44.951Z,43.94
2023-04-27T12:32:12.204Z,43.12
2023-04-27T12:34:39.713Z,43.51
2023-04-27T12:37:12.324Z,43.57
2023-04-27T12:39:40.243Z,43.55
2023-04-27T12:42:07.355Z,43.90
2023-04-27T12:44:34.108Z,43.98
2023-04-27T12:47:01.023Z,44.01
2023-04-27T12:49:27.921Z,44.50
2023-04-27T12:51:54.811Z,43.87
2023-04-27T12:54:24.684Z,43.86
2023-04-27T12:56:53.269Z,44.50
2023-04-27T12:59:20.095Z,43.40
2023-04-27T13:01:47.352Z,44.26
2023-04-27T13:04:21.276Z,43.74
2023-04-27T13:06:49.085Z,43.86
2023-04-27T13:09:18.881Z,43.95
2023-04-27T13:11:45.873Z,43.64
2023-04-27T13:14:13.628Z,43.42
2023-04-27T13:16:42.049Z,42.45
2023-04-27T13:19:09.014Z,42.54
2023-04-27T13:21:36.119Z,43.18
2023-04-27T13:24:03.154Z,42.69
2023-04-27T13:26:30.383Z,42.89
2023-04-27T13:28:58.208Z,42.12
2023-04-27T13:31:25.260Z,42.80
2023-04-27T13:33:53.711Z,43.22
2023-04-27T13:36:21.552Z,43.73
2023-04-27T13:38:48.905Z,42.68
2023-04-27T13:41:16.401Z,42.58
2023-04-27T13:43:43.967Z,41.97
2023-04-27T13:46:11.170Z,43.09
2023-04-27T13:48:38.721Z,42.86
2023-04-27T13:51:06.070Z,41.57
2023-04-27T13:53:45.347Z,42.42
2023-04-27T13:56:13.147Z,42.64
2023-04-27T13:58:44.420Z,43.05
2023-04-27T14:01:20.118Z,42.68
2023-04-27T14:03:48.958Z,43.21
2023-04-27T14:06:15.994Z,40.99
2023-04-27T14:08:42.959Z,41.95
2023-04-27T14:11:13.588Z,43.04
2023-04-27T14:13:50.483Z,43.27
2023-04-27T14:16:18.104Z,43.33
2023-04-27T14:18:44.977Z,43.27
2023-04-27T14:21:12.117Z,43.02
2023-04-27T14:23:40.833Z,42.82
2023-04-27T14:26:08.013Z,43.33
2023-04-27T14:28:45.557Z,43.32
2023-04-27T14:31:17.884Z,43.95
2023-04-27T14:33:44.801Z,43.29
2023-04-27T14:36:11.724Z,43.85
2023-04-27T14:38:39.753Z,43.14
2023-04-27T14:41:08.751Z,43.13
2023-04-27T14:43:44.909Z,43.50
2023-04-27T14:46:20.913Z,43.50
2023-04-27T14:48:49.846Z,42.68
2023-04-27T14:51:17.120Z,43.49
2023-04-27T14:53:44.555Z,43.42
2023-04-27T14:56:11.859Z,42.39
2023-04-27T14:58:39.229Z,41.77
2023-04-27T15:01:08.301Z,41.94
2023-04-27T15:03:35.447Z,41.93
2023-04-27T15:06:03.362Z,41.75
2023-04-27T15:08:32.742Z,41.33
2023-04-27T15:11:01.048Z,40.73
2023-04-27T15:13:28.237Z,39.46
2023-04-27T15:16:02.230Z,37.79
2023-04-27T15:18:33.393Z,38.28
2023-04-27T15:21:00.333Z,38.08
2023-04-27T15:23:28.058Z,38.95
2023-04-27T15:25:57.125Z,39.14
2023-04-27T15:28:36.655Z,39.80
2023-04-27T15:31:05.233Z,40.67
2023-04-27T15:33:36.322Z,38.54
2023-04-27T15:36:03.414Z,40.74
2023-04-27T15:38:30.407Z,40.48
2023-04-27T15:40:57.384Z,39.57
2023-04-27T15:43:24.416Z,39.97
2023-04-27T15:45:51.481Z,39.71
2023-04-27T15:48:18.324Z,40.64
2023-04-27T15:50:46.925Z,38.90
2023-04-27T15:53:14.020Z,38.74
2023-04-27T15:55:40.982Z,39.66
2023-04-27T15:58:07.858Z,40.48
2023-04-27T16:00:35.429Z,40.78
2023-04-27T16:03:02.595Z,40.75
2023-04-27T16:05:29.687Z,39.03
2023-04-27T16:07:56.535Z,41.13
2023-04-27T16:10:23.461Z,41.11
2023-04-27T16:12:50.673Z,41.47
2023-04-27T16:15:18.507Z,41.33
2023-04-27T16:17:47.822Z,41.23
2023-04-27T16:20:19.654Z,41.71
2023-04-27T16:22:46.763Z,41.99
2023-04-27T16:25:13.792Z,41.69
2023-04-27T16:27:40.930Z,41.56
2023-04-27T16:30:08.264Z,41.60
2023-04-27T16:32:35.855Z,41.46
2023-04-27T16:35:03.320Z,40.80
2023-04-27T16:37:30.352Z,40.26
2023-04-27T16:40:02.310Z,40.35
2023-04-27T16:42:29.979Z,39.47
2023-04-27T16:44:57.330Z,39.55
2023-04-27T16:47:24.243Z,39.46
2023-04-27T16:49:51.491Z,39.77
2023-04-27T16:52:18.896Z,40.75
2023-04-27T16:54:45.996Z,41.21
2023-04-27T16:57:17.162Z,41.60
2023-04-27T16:59:44.065Z,40.89
2023-04-27T17:02:23.804Z,41.94
2023-04-27T17:04:52.066Z,42.25
2023-04-27T17:07:19.230Z,42.70
2023-04-27T17:09:50.717Z,42.58
2023-04-27T17:12:17.634Z,42.40
2023-04-27T17:14:44.525Z,42.36
2023-04-27T17:17:12.741Z,42.45
2023-04-27T17:19:39.691Z,42.74
2023-04-27T17:22:11.061Z,42.52
2023-04-27T17:24:37.870Z,42.46
2023-04-27T17:27:08.984Z,42.42
2023-04-27T17:29:36.638Z,42.64
2023-04-27T17:32:04.677Z,43.33
2023-04-27T17:34:31.926Z,43.86
2023-04-27T17:37:01.524Z,44.11
2023-04-27T17:39:28.817Z,44.02
2023-04-27T17:41:57.422Z,44.61
2023-04-27T17:44:24.701Z,45.08
2023-04-27T17:46:52.326Z,45.53
2023-04-27T17:49:41.503Z,45.83
2023-04-27T17:52:18.537Z,45.96
2023-04-27T17:54:45.749Z,46.22
2023-04-27T17:57:12.734Z,46.80
2023-04-27T17:59:48.579Z,46.33
2023-04-27T18:02:40.734Z,46.26
2023-04-27T18:05:08.779Z,46.06
2023-04-27T18:07:38.812Z,46.35
2023-04-27T18:10:09.587Z,46.37
2023-04-27T18:12:36.520Z,46.64
2023-04-27T18:15:06.285Z,46.58
2023-04-27T18:17:36.119Z,46.46
2023-04-27T18:20:11.275Z,46.32
2023-04-27T18:22:40.374Z,46.61
2023-04-27T18:25:09.201Z,46.66
2023-04-27T18:27:38.198Z,46.96
2023-04-27T18:30:06.460Z,46.90
2023-04-27T18:32:35.820Z,46.81
2023-04-27T18:35:15.143Z,47.53
2023-04-27T18:37:42.682Z,47.62
2023-04-27T18:40:10.216Z,47.71
2023-04-27T18:42:37.122Z,47.09
2023-04-27T18:45:04.234Z,47.35
2023-04-27T18:47:38.968Z,47.60
2023-04-27T18:50:15.126Z,47.28
2023-04-27T18:52:43.909Z,47.67
2023-04-27T18:55:11.065Z,47.11
2023-04-27T18:57:38.654Z,47.59
2023-04-27T19:00:06.442Z,47.74
2023-04-27T19:02:33.607Z,47.54
2023-04-27T19:05:11.615Z,47.95
2023-04-27T19:07:43.820Z,47.67
2023-04-27T19:10:12.376Z,48.07
2023-04-27T19:12:39.528Z,48.17
2023-04-27T19:15:07.043Z,48.30
2023-04-27T19:17:35.155Z,47.57
2023-04-27T19:20:02.242Z,47.75
2023-04-27T19:22:34.357Z,48.13
2023-04-27T19:25:01.529Z,48.14
2023-04-27T19:27:31.699Z,47.95
2023-04-27T19:30:01.309Z,47.89
2023-04-27T19:32:28.908Z,48.10
2023-04-27T19:34:57.406Z,48.14
2023-04-27T19:37:26.432Z,48.38
2023-04-27T19:39:53.430Z,48.62
2023-04-27T19:42:20.361Z,48.20
2023-04-27T19:44:47.131Z,47.84
2023-04-27T19:47:13.926Z,48.59
2023-04-27T19:49:41.030Z,48.61
2023-04-27T19:52:07.885Z,48.12
2023-04-27T19:54:44.080Z,48.56
2023-04-27T19:57:11.883Z,48.91
2023-04-27T19:59:38.869Z,48.75
2023-04-27T20:02:05.777Z,49.09
2023-04-27T20:04:33.298Z,49.20
2023-04-27T20:07:00.554Z,48.23
2023-04-27T20:09:27.462Z,48.44
2023-04-27T20:11:57.955Z,49.20
2023-04-27T20:14:25.343Z,48.91
2023-04-27T20:16:52.508Z,49.42
2023-04-27T20:19:21.185Z,49.29
2023-04-27T20:21:54.481Z,49.18
2023-04-27T20:24:23.722Z,48.78
2023-04-27T20:26:52.068Z,49.22
2023-04-27T20:29:19.001Z,48.94
2023-04-27T20:31:53.268Z,49.89
2023-04-27T20:34:20.359Z,49.88
2023-04-27T20:36:47.455Z,50.72
2023-04-27T20:39:15.499Z,50.43
2023-04-27T20:41:42.979Z,50.94
2023-04-27T20:44:10.738Z,50.62
2023-04-27T20:46:38.211Z,50.22
2023-04-27T20:49:08.431Z,51.19
2023-04-27T20:51:35.290Z,51.37
2023-04-27T20:54:02.379Z,51.51
2023-04-27T20:56:33.205Z,51.73
2023-04-27T20:59:02.344Z,51.32
2023-04-27T21:01:29.248Z,51.06
2023-04-27T21:04:02.230Z,51.31
2023-04-27T21:06:29.196Z,51.99
2023-04-27T21:08:57.544Z,51.74
2023-04-27T21:11:25.101Z,51.69
2023-04-27T21:13:52.668Z,50.98
2023-04-27T21:16:20.232Z,52.46
2023-04-27T21:18:47.262Z,51.90
2023-04-27T21:21:14.149Z,52.74
2023-04-27T21:23:41.068Z,53.24
2023-04-27T21:26:09.208Z,54.07
2023-04-27T21:28:36.120Z,54.54
2023-04-27T21:31:09.553Z,53.15
2023-04-27T21:33:37.033Z,53.25
2023-04-27T21:36:05.050Z,54.45
2023-04-27T21:38:32.084Z,54.75
2023-04-27T21:40:59.038Z,54.10
2023-04-27T21:43:26.399Z,54.72
2023-04-27T21:45:55.660Z,53.43
2023-04-27T21:48:26.848Z,52.09
2023-04-27T21:50:54.972Z,53.31
2023-04-27T21:53:21.733Z,53.73
2023-04-27T21:55:58.604Z,54.16
2023-04-27T21:58:31.336Z,53.79
2023-04-27T22:00:58.623Z,53.28
2023-04-27T22:03:28.954Z,53.59
2023-04-27T22:05:57.830Z,54.65
2023-04-27T22:08:24.665Z,55.66
2023-04-27T22:10:51.720Z,54.64
2023-04-27T22:13:19.775Z,54.88
2023-04-27T22:15:47.810Z,55.74
2023-04-27T22:18:23.284Z,54.74
2023-04-27T22:20:50.262Z,53.82
2023-04-27T22:23:17.126Z,54.48
2023-04-27T22:25:44.047Z,52.97
2023-04-27T22:28:16.425Z,52.13
2023-04-27T22:30:43.232Z,55.50
2023-04-27T22:33:10.267Z,55.45
2023-04-27T22:35:37.729Z,55.52
2023-04-27T22:38:08.066Z,54.10
2023-04-27T22:40:39.306Z,55.08
2023-04-27T22:43:08.930Z,56.38
2023-04-27T22:45:38.091Z,56.66
2023-04-27T22:48:06.031Z,57.18
2023-04-27T22:50:33.156Z,58.61
2023-04-27T22:53:00.854Z,58.37
2023-04-27T22:55:30.785Z,59.21
2023-04-27T22:58:02.224Z,59.18
2023-04-27T23:00:29.295Z,60.00
2023-04-27T23:02:57.690Z,58.18
2023-04-27T23:05:25.332Z,57.26
2023-04-27T23:07:52.244Z,55.50
2023-04-27T23:10:19.326Z,54.12
2023-04-27T23:12:46.381Z,54.67
2023-04-27T23:15:13.433Z,55.68
2023-04-27T23:17:40.401Z,56.61
2023-04-27T23:20:26.799Z,58.26
2023-04-27T23:22:54.820Z,59.68
2023-04-27T23:25:21.946Z,59.81
2023-04-27T23:27:51.205Z,59.77
2023-04-27T23:30:19.120Z,58.21
2023-04-27T23:32:46.267Z,56.06
2023-04-27T23:35:13.192Z,56.52
2023-04-27T23:37:43.340Z,55.63
2023-04-27T23:40:10.670Z,55.27
2023-04-27T23:42:37.813Z,53.96
2023-04-27T23:45:07.507Z,54.83
2023-04-27T23:47:34.735Z,55.39
2023-04-27T23:50:02.581Z,56.10
2023-04-27T23:52:29.661Z,56.26
2023-04-27T23:54:58.066Z,56.89
2023-04-27T23:57:26.382Z,58.82
2023-04-27T23:59:53.255Z,60.25
